Time;durP1;ratioP1;P1;durP2;ratioP2;P2;SDS_P1;SDS_P2;PMS_P1;PMS_P2;Temp;Humidity;BMP_temperature;BMP_pressure;BME280_temperature;BME280_humidity;BME280_pressure;Samples;Min_cycle;Max_cycle;Signal;HPM_P1;HPM_P2
2022/04/07 00:00:35;;;;;;;24.67;22.17;;;10.90;99.90;;;;;;5021092;28;20223;-77
2022/04/07 00:03:02;;;;;;;24.85;22.17;;;10.90;99.90;;;;;;5011744;28;20271;-75
2022/04/07 00:05:29;;;;;;;23.85;21.42;;;10.80;99.90;;;;;;5017701;28;20239;-75
2022/04/07 00:07:56;;;;;;;22.42;20.13;;;10.80;99.90;;;;;;5014935;28;20285;-74
2022/04/07 00:10:23;;;;;;;23.05;20.65;;;10.80;99.90;;;;;;5025924;28;20219;-76
2022/04/07 00:12:52;;;;;;;27.88;24.35;;;10.80;99.90;;;;;;5017984;28;20251;-74
2022/04/07 00:15:19;;;;;;;28.42;25.42;;;10.80;99.90;;;;;;5023050;28;20224;-75
2022/04/07 00:17:46;;;;;;;22.95;20.52;;;10.70;99.90;;;;;;5021751;28;20208;-75
2022/04/07 00:20:13;;;;;;;33.78;29.77;;;10.70;99.90;;;;;;5017342;28;20237;-76
2022/04/07 00:22:41;;;;;;;26.60;23.85;;;10.70;99.90;;;;;;5013635;28;20208;-75
2022/04/07 00:25:10;;;;;;;24.38;21.88;;;10.70;99.90;;;;;;5017624;28;20236;-75
2022/04/07 00:27:37;;;;;;;24.77;22.27;;;10.70;99.90;;;;;;5018775;28;20307;-75
2022/04/07 00:30:08;;;;;;;26.25;23.63;;;10.70;99.90;;;;;;5015179;28;20978;-76
2022/04/07 00:32:41;;;;;;;22.65;20.25;;;10.70;99.90;;;;;;5019173;28;20586;-75
2022/04/07 00:35:09;;;;;;;22.92;20.50;;;10.60;99.90;;;;;;5015157;28;20267;-75
2022/04/07 00:37:36;;;;;;;22.40;19.75;;;10.60;99.90;;;;;;5012946;28;20203;-75
2022/04/07 00:40:04;;;;;;;20.73;18.63;;;10.60;99.90;;;;;;5009929;28;20278;-76
2022/04/07 00:42:31;;;;;;;18.92;16.90;;;10.70;99.90;;;;;;5015586;28;20192;-77
2022/04/07 00:44:58;;;;;;;20.30;18.20;;;10.70;99.90;;;;;;5013641;28;20224;-75
2022/04/07 00:47:27;;;;;;;20.73;18.63;;;10.70;99.90;;;;;;5012738;28;20265;-77
2022/04/07 00:49:54;;;;;;;19.85;17.45;;;10.80;99.90;;;;;;5015416;28;20232;-74
2022/04/07 00:52:22;;;;;;;18.70;16.70;;;10.80;99.90;;;;;;5017033;28;20200;-78
2022/04/07 00:54:50;;;;;;;19.65;17.52;;;10.80;99.90;;;;;;5014721;28;20270;-76
2022/04/07 00:57:17;;;;;;;20.15;18.08;;;10.80;99.90;;;;;;5016937;28;20296;-76
2022/04/07 00:59:46;;;;;;;19.38;17.38;;;10.80;99.90;;;;;;5012693;28;20228;-75
2022/04/07 01:02:14;;;;;;;19.83;17.75;;;10.80;99.90;;;;;;5013087;28;20302;-76
2022/04/07 01:04:42;;;;;;;21.15;18.85;;;10.80;99.90;;;;;;5012015;28;20239;-75
2022/04/07 01:07:09;;;;;;;21.20;18.98;;;10.80;99.90;;;;;;5009335;28;20208;-75
2022/04/07 01:09:37;;;;;;;20.35;18.20;;;10.70;99.90;;;;;;5015766;28;20259;-76
2022/04/07 01:12:06;;;;;;;19.80;17.80;;;10.70;99.90;;;;;;5016438;28;20211;-76
2022/04/07 01:14:33;;;;;;;19.60;17.60;;;10.80;99.90;;;;;;5020436;28;20242;-75
2022/04/07 01:17:11;;;;;;;22.98;20.55;;;10.70;99.90;;;;;;5019598;28;20659;-76
2022/04/07 01:19:39;;;;;;;21.02;18.88;;;10.60;99.90;;;;;;5014568;28;21536;-75
2022/04/07 01:22:07;;;;;;;19.23;17.33;;;10.60;99.90;;;;;;5013306;28;20216;-75
2022/04/07 01:24:35;;;;;;;19.70;17.60;;;10.60;99.90;;;;;;5018828;28;20225;-75
2022/04/07 01:27:03;;;;;;;19.42;17.50;;;10.60;99.90;;;;;;5013787;28;20219;-75
2022/04/07 01:29:30;;;;;;;21.30;19.10;;;10.60;99.90;;;;;;5013145;28;20228;-74
2022/04/07 01:31:59;;;;;;;19.95;17.88;;;10.60;99.90;;;;;;5013054;28;20203;-74
2022/04/07 01:34:26;;;;;;;18.58;16.67;;;10.50;99.90;;;;;;5015390;28;20204;-75
2022/04/07 01:36:54;;;;;;;17.92;16.13;;;10.50;99.90;;;;;;5023762;28;20235;-76
2022/04/07 01:39:26;;;;;;;18.75;16.85;;;10.50;99.90;;;;;;5017550;28;20283;-74
2022/04/07 01:41:55;;;;;;;18.17;16.27;;;10.60;99.90;;;;;;5014918;28;20230;-74
2022/04/07 01:44:24;;;;;;;20.15;18.00;;;10.60;99.90;;;;;;5015437;28;20212;-75
2022/04/07 01:46:52;;;;;;;17.23;15.43;;;10.60;99.90;;;;;;5018732;28;20286;-75
2022/04/07 01:49:21;;;;;;;19.58;17.58;;;10.60;99.90;;;;;;5010246;28;20299;-74
2022/04/07 01:51:49;;;;;;;18.42;16.52;;;10.60;99.90;;;;;;5020716;28;20721;-75
2022/04/07 01:54:16;;;;;;;19.27;17.25;;;10.70;99.90;;;;;;5010684;28;20226;-75
2022/04/07 01:56:44;;;;;;;19.65;17.65;;;10.60;99.90;;;;;;5013467;28;20276;-76
2022/04/07 01:59:14;;;;;;;20.17;18.05;;;10.60;99.90;;;;;;5013082;28;20228;-74
2022/04/07 02:01:41;;;;;;;19.20;17.23;;;10.60;99.90;;;;;;5013947;28;20224;-76
2022/04/07 02:04:08;;;;;;;19.80;17.60;;;10.60;99.90;;;;;;5014517;28;20282;-75
2022/04/07 02:06:35;;;;;;;18.98;16.98;;;10.60;99.90;;;;;;5014385;28;20216;-75
2022/04/07 02:09:02;;;;;;;19.35;17.38;;;10.60;99.90;;;;;;5015239;28;20240;-76
2022/04/07 02:11:31;;;;;;;19.65;17.65;;;10.60;99.90;;;;;;5014766;28;20275;-76
2022/04/07 02:13:59;;;;;;;20.08;18.08;;;10.60;99.90;;;;;;5015767;28;20312;-77
2022/04/07 02:16:30;;;;;;;18.60;16.60;;;10.60;99.90;;;;;;5011878;28;20220;-75
2022/04/07 02:18:57;;;;;;;18.85;16.85;;;10.60;99.90;;;;;;5020737;28;20711;-74
2022/04/07 02:21:24;;;;;;;19.00;17.05;;;10.50;99.90;;;;;;5016664;28;20249;-75
2022/04/07 02:23:52;;;;;;;18.95;17.05;;;10.50;99.90;;;;;;5009693;28;20196;-76
2022/04/07 02:26:19;;;;;;;20.30;18.25;;;10.50;99.90;;;;;;5012631;28;20274;-76
2022/04/07 02:28:46;;;;;;;21.50;19.35;;;10.50;99.90;;;;;;5008813;28;20306;-74
2022/04/07 02:31:13;;;;;;;24.63;22.02;;;10.50;99.90;;;;;;5011840;28;20266;-74
2022/04/07 02:33:42;;;;;;;21.90;19.70;;;10.40;99.90;;;;;;5013182;28;20200;-77
2022/04/07 02:36:09;;;;;;;20.42;18.42;;;10.40;99.90;;;;;;5014293;28;20242;-75
2022/04/07 02:38:37;;;;;;;20.35;18.35;;;10.40;99.90;;;;;;5012329;28;20211;-76
2022/04/07 02:41:05;;;;;;;19.27;17.35;;;10.40;99.90;;;;;;5059429;22;20235;-76
2022/04/07 02:43:32;;;;;;;20.77;18.13;;;10.40;99.90;;;;;;5037856;28;20288;-75
2022/04/07 02:45:59;;;;;;;19.05;17.10;;;10.40;99.90;;;;;;5038158;28;20652;-76
2022/04/07 02:48:26;;;;;;;19.60;17.67;;;10.40;99.90;;;;;;5042578;28;20264;-75
2022/04/07 02:50:54;;;;;;;17.48;15.68;;;10.40;99.90;;;;;;5034564;28;20219;-76
2022/04/07 02:53:21;;;;;;;20.90;18.75;;;10.40;99.90;;;;;;5026047;28;20566;-75
2022/04/07 02:55:48;;;;;;;19.40;17.35;;;10.30;99.90;;;;;;5025759;28;20277;-76
2022/04/07 02:58:15;;;;;;;22.33;19.45;;;10.30;99.90;;;;;;5024041;28;20670;-76
2022/04/07 03:00:42;;;;;;;22.05;19.70;;;10.20;99.90;;;;;;5021436;28;20223;-75
2022/04/07 03:03:09;;;;;;;20.65;18.45;;;10.20;99.90;;;;;;5025161;28;20214;-76
2022/04/07 03:05:36;;;;;;;20.52;18.33;;;10.20;99.90;;;;;;5023112;28;20274;-76
2022/04/07 03:08:05;;;;;;;20.08;17.98;;;10.10;99.90;;;;;;5028808;28;20203;-76
2022/04/07 03:10:32;;;;;;;20.73;18.50;;;10.10;99.90;;;;;;5026571;28;20238;-75
2022/04/07 03:12:59;;;;;;;19.52;17.58;;;10.10;99.90;;;;;;5027114;28;20622;-76
2022/04/07 03:15:27;;;;;;;21.40;19.05;;;10.20;99.90;;;;;;5024702;28;20254;-77
2022/04/07 03:17:54;;;;;;;21.23;19.05;;;10.20;99.90;;;;;;5028138;28;20204;-75
2022/04/07 03:20:21;;;;;;;19.85;17.83;;;10.20;99.90;;;;;;5028360;28;20449;-75
2022/04/07 03:22:48;;;;;;;21.05;18.92;;;10.20;99.90;;;;;;5029210;28;20210;-75
2022/04/07 03:25:17;;;;;;;20.50;18.40;;;10.20;99.90;;;;;;5024418;28;20623;-76
2022/04/07 03:27:44;;;;;;;20.15;18.05;;;10.10;99.90;;;;;;5024631;28;20200;-76
2022/04/07 03:30:12;;;;;;;19.63;17.63;;;10.10;99.90;;;;;;5025139;28;20703;-75
2022/04/07 03:32:39;;;;;;;19.58;17.58;;;10.10;99.90;;;;;;5027315;28;20265;-76
2022/04/07 03:35:06;;;;;;;20.70;18.15;;;10.20;99.90;;;;;;5025664;28;20227;-76
2022/04/07 03:37:34;;;;;;;20.08;17.98;;;10.10;99.90;;;;;;5034309;28;20199;-77
2022/04/07 03:40:01;;;;;;;20.25;18.25;;;10.10;99.90;;;;;;5027863;28;20200;-75
2022/04/07 03:42:29;;;;;;;18.90;16.90;;;10.20;99.90;;;;;;5030787;28;20195;-75
2022/04/07 03:44:56;;;;;;;19.73;17.10;;;10.20;99.90;;;;;;5026967;28;20196;-75
2022/04/07 03:47:23;;;;;;;23.23;19.75;;;10.20;99.90;;;;;;5030882;28;20234;-75
2022/04/07 03:49:50;;;;;;;20.83;18.63;;;10.10;99.90;;;;;;5027768;28;20658;-75
2022/04/07 03:52:17;;;;;;;25.52;22.80;;;10.10;99.90;;;;;;5030073;28;20310;-75
2022/04/07 03:54:44;;;;;;;24.10;21.60;;;10.00;99.90;;;;;;5030420;28;20196;-75
2022/04/07 03:57:11;;;;;;;21.65;19.45;;;10.00;99.90;;;;;;5032906;28;20692;-77
2022/04/07 03:59:42;;;;;;;27.42;24.52;;;10.00;99.90;;;;;;5029743;28;20250;-76
2022/04/07 04:02:10;;;;;;;23.40;20.90;;;10.00;99.90;;;;;;5028817;28;20322;-75
2022/04/07 04:04:37;;;;;;;20.20;18.10;;;10.00;99.90;;;;;;5030379;28;20206;-76
2022/04/07 04:07:05;;;;;;;21.65;19.48;;;10.10;99.90;;;;;;5028575;28;20235;-77
2022/04/07 04:09:32;;;;;;;22.98;20.67;;;10.10;99.90;;;;;;5028697;28;20199;-75
2022/04/07 04:11:59;;;;;;;24.33;21.88;;;10.10;99.90;;;;;;5027286;28;20327;-76
2022/04/07 04:14:27;;;;;;;22.20;19.90;;;10.00;99.90;;;;;;5027477;28;20192;-76
2022/04/07 04:16:55;;;;;;;23.17;20.80;;;10.00;99.90;;;;;;5028855;28;20223;-75
2022/04/07 04:19:22;;;;;;;25.77;21.88;;;10.00;99.90;;;;;;5025665;28;20196;-76
2022/04/07 04:21:50;;;;;;;22.58;20.13;;;10.00;99.90;;;;;;5025320;28;20371;-76
2022/04/07 04:24:17;;;;;;;25.38;22.73;;;10.00;99.90;;;;;;5026148;28;20202;-75
2022/04/07 04:26:44;;;;;;;21.90;19.67;;;10.00;99.90;;;;;;5026268;28;20223;-75
2022/04/07 04:29:11;;;;;;;21.80;19.50;;;10.00;99.90;;;;;;5027345;28;20199;-76
2022/04/07 04:31:38;;;;;;;20.55;18.35;;;10.00;99.90;;;;;;5025430;28;20432;-76
2022/04/07 04:34:06;;;;;;;21.58;19.27;;;10.00;99.90;;;;;;5027368;28;20192;-75
2022/04/07 04:36:35;;;;;;;22.02;19.80;;;10.10;99.90;;;;;;5025918;28;20219;-76
2022/04/07 04:39:03;;;;;;;22.48;20.15;;;10.00;99.90;;;;;;5026924;28;20686;-77
2022/04/07 04:41:29;;;;;;;24.10;21.50;;;9.90;99.90;;;;;;5026281;28;20235;-76
2022/04/07 04:43:56;;;;;;;22.92;20.50;;;9.80;99.90;;;;;;5028566;28;20221;-76
2022/04/07 04:46:23;;;;;;;21.85;19.60;;;9.70;99.90;;;;;;5023935;28;20223;-76
2022/04/07 04:48:51;;;;;;;22.92;20.63;;;9.70;99.90;;;;;;5024496;28;20204;-75
2022/04/07 04:51:19;;;;;;;20.63;18.63;;;9.60;99.90;;;;;;5025568;28;20237;-76
2022/04/07 04:53:47;;;;;;;21.98;19.67;;;9.70;99.90;;;;;;5028201;28;20196;-76
2022/04/07 04:56:14;;;;;;;22.05;19.73;;;9.70;99.90;;;;;;5027756;28;20358;-76
2022/04/07 04:58:41;;;;;;;25.10;22.48;;;9.80;99.90;;;;;;5028472;28;20276;-77
2022/04/07 05:01:08;;;;;;;23.38;21.02;;;9.80;99.90;;;;;;5026418;28;20230;-76
2022/04/07 05:03:35;;;;;;;23.42;20.98;;;9.70;99.90;;;;;;5028842;28;20639;-75
2022/04/07 05:06:03;;;;;;;22.88;20.30;;;9.80;99.90;;;;;;5024434;28;20227;-74
2022/04/07 05:08:31;;;;;;;22.70;19.90;;;9.80;99.90;;;;;;5028102;28;20203;-75
2022/04/07 05:10:58;;;;;;;24.77;22.15;;;9.80;99.90;;;;;;5027390;28;20227;-76
2022/04/07 05:13:25;;;;;;;22.98;20.30;;;9.80;99.90;;;;;;5025991;28;20274;-75
2022/04/07 05:15:52;;;;;;;24.17;21.58;;;9.80;99.90;;;;;;5022718;28;20224;-76
2022/04/07 05:18:19;;;;;;;26.38;23.60;;;9.80;99.90;;;;;;5028968;28;20680;-75
2022/04/07 05:20:46;;;;;;;25.83;23.05;;;9.80;99.90;;;;;;5029273;28;20270;-76
2022/04/07 05:23:13;;;;;;;26.83;24.10;;;9.80;99.90;;;;;;5027239;28;20646;-75
2022/04/07 05:25:42;;;;;;;26.35;23.55;;;9.80;99.90;;;;;;5027404;28;20270;-76
2022/04/07 05:28:09;;;;;;;26.45;23.60;;;9.80;99.90;;;;;;5029524;28;20226;-75
2022/04/07 05:30:36;;;;;;;24.70;22.00;;;9.80;99.90;;;;;;5025141;28;20224;-75
2022/04/07 05:33:03;;;;;;;26.55;23.70;;;9.80;99.90;;;;;;5031684;28;20249;-74
2022/04/07 05:35:30;;;;;;;24.25;21.42;;;9.80;99.90;;;;;;5026450;28;20292;-77
2022/04/07 05:38:01;;;;;;;24.58;21.98;;;9.80;99.90;;;;;;5029261;28;20254;-74
2022/04/07 05:40:28;;;;;;;23.40;20.92;;;9.80;99.90;;;;;;5026819;28;20224;-76
2022/04/07 05:42:59;;;;;;;22.88;20.48;;;9.80;99.90;;;;;;5029536;28;20261;-75
2022/04/07 05:45:26;;;;;;;31.77;27.65;;;9.80;99.90;;;;;;5027561;28;20219;-75
2022/04/07 05:47:53;;;;;;;30.48;27.13;;;9.80;99.90;;;;;;5028856;28;20219;-75
2022/04/07 05:50:20;;;;;;;28.90;25.80;;;9.70;99.90;;;;;;5028566;28;20215;-75
2022/04/07 05:52:47;;;;;;;26.70;23.65;;;9.70;99.90;;;;;;5027753;28;20196;-75
2022/04/07 05:55:14;;;;;;;24.23;21.70;;;9.70;99.90;;;;;;5029258;28;20262;-77
2022/04/07 05:57:41;;;;;;;23.80;21.35;;;9.80;99.90;;;;;;5026886;28;20658;-76
2022/04/07 06:00:12;;;;;;;27.05;23.10;;;9.80;99.90;;;;;;5026839;28;20202;-75
2022/04/07 06:02:40;;;;;;;25.13;22.52;;;9.90;99.90;;;;;;5027290;28;20221;-76
2022/04/07 06:05:09;;;;;;;25.95;23.20;;;10.00;99.90;;;;;;5027615;28;20716;-75
2022/04/07 06:07:37;;;;;;;23.80;21.27;;;10.00;99.90;;;;;;5027373;28;20617;-76
2022/04/07 06:10:04;;;;;;;24.75;21.98;;;10.10;99.90;;;;;;5025008;28;20269;-76
2022/04/07 06:12:32;;;;;;;23.80;21.40;;;10.10;99.90;;;;;;5028961;28;20226;-75
2022/04/07 06:14:59;;;;;;;25.85;22.52;;;10.20;99.90;;;;;;5028208;28;20192;-74
2022/04/07 06:17:34;;;;;;;25.20;22.65;;;10.30;99.90;;;;;;5026846;28;20682;-76
2022/04/07 06:20:01;;;;;;;24.17;21.65;;;10.40;99.90;;;;;;5023091;28;20210;-77
2022/04/07 06:22:28;;;;;;;30.75;23.58;;;10.50;99.90;;;;;;5027331;28;20226;-76
2022/04/07 06:24:55;;;;;;;29.15;26.00;;;10.60;99.90;;;;;;5027423;28;20674;-75
2022/04/07 06:27:22;;;;;;;28.92;25.52;;;10.70;99.90;;;;;;5025067;28;20277;-76
2022/04/07 06:29:49;;;;;;;27.75;24.75;;;10.70;99.90;;;;;;5030118;28;20199;-75
2022/04/07 06:32:16;;;;;;;33.60;30.00;;;10.60;99.90;;;;;;5028200;28;20227;-77
2022/04/07 06:34:45;;;;;;;30.27;27.20;;;10.70;99.90;;;;;;5030573;28;20191;-74
2022/04/07 06:37:12;;;;;;;30.08;26.88;;;10.90;99.90;;;;;;5028823;28;20224;-75
2022/04/07 06:39:39;;;;;;;29.35;26.17;;;11.20;99.90;;;;;;5028283;28;20207;-78
2022/04/07 06:42:07;;;;;;;29.50;26.40;;;11.60;99.90;;;;;;5025957;28;20220;-75
2022/04/07 06:44:34;;;;;;;29.83;26.75;;;12.00;99.90;;;;;;5025643;28;20607;-76
2022/04/07 06:47:01;;;;;;;29.83;26.73;;;12.40;99.90;;;;;;5024448;28;20286;-76
2022/04/07 06:49:28;;;;;;;29.42;26.30;;;12.60;99.90;;;;;;5028346;28;20195;-75
2022/04/07 06:51:56;;;;;;;28.75;25.83;;;12.80;99.90;;;;;;5026229;28;20223;-75
2022/04/07 06:54:23;;;;;;;34.30;29.75;;;13.00;99.90;;;;;;5022729;28;20191;-76
2022/04/07 06:56:50;;;;;;;34.95;30.08;;;13.00;99.90;;;;;;5028978;28;20238;-76
2022/04/07 06:59:17;;;;;;;33.10;29.60;;;12.80;99.90;;;;;;5028313;28;20199;-77
2022/04/07 07:01:44;;;;;;;33.13;29.67;;;12.60;99.90;;;;;;5029457;28;20227;-74
2022/04/07 07:04:11;;;;;;;33.65;30.25;;;12.50;99.90;;;;;;5028279;28;20225;-76
2022/04/07 07:06:38;;;;;;;33.33;29.80;;;12.50;99.90;;;;;;5025617;28;20216;-74
2022/04/07 07:09:06;;;;;;;36.35;32.40;;;12.70;99.90;;;;;;5027445;28;20199;-75
2022/04/07 07:11:33;;;;;;;30.52;27.30;;;12.80;99.90;;;;;;5032764;28;20219;-76
2022/04/07 07:14:00;;;;;;;36.20;30.95;;;13.00;99.90;;;;;;5033568;28;20253;-75
2022/04/07 07:16:27;;;;;;;33.95;29.95;;;13.00;99.90;;;;;;5030640;28;20216;-75
2022/04/07 07:18:54;;;;;;;31.80;27.23;;;12.80;99.90;;;;;;5031847;28;20749;-75
2022/04/07 07:21:21;;;;;;;34.88;31.25;;;12.60;99.90;;;;;;5027506;28;20270;-77
2022/04/07 07:23:48;;;;;;;32.72;29.27;;;12.30;99.90;;;;;;5031626;28;20199;-76
2022/04/07 07:26:17;;;;;;;33.03;29.45;;;12.10;99.90;;;;;;5030484;28;20223;-76
2022/04/07 07:28:44;;;;;;;34.90;31.27;;;12.00;99.90;;;;;;5028541;28;20216;-76
2022/04/07 07:31:11;;;;;;;28.75;25.67;;;11.90;99.90;;;;;;5028528;28;20231;-77
2022/04/07 07:33:38;;;;;;;25.38;22.73;;;12.00;99.90;;;;;;5030116;28;20615;-76
2022/04/07 07:36:05;;;;;;;28.08;25.15;;;12.20;99.90;;;;;;5033715;28;20281;-76
2022/04/07 07:38:32;;;;;;;23.17;20.67;;;12.40;99.90;;;;;;5034332;28;20225;-75
2022/04/07 07:41:00;;;;;;;22.13;19.83;;;12.90;99.90;;;;;;5022855;28;20285;-77
2022/04/07 07:43:29;;;;;;;27.63;24.67;;;13.40;99.90;;;;;;5032322;28;20636;-77
2022/04/07 07:45:56;;;;;;;29.60;26.40;;;13.50;99.90;;;;;;5033284;28;20273;-77
2022/04/07 07:48:27;;;;;;;30.30;27.17;;;13.30;99.90;;;;;;5031328;28;20227;-77
2022/04/07 07:50:55;;;;;;;36.05;32.25;;;13.10;99.90;;;;;;5034245;28;20245;-75
2022/04/07 07:53:22;;;;;;;30.08;26.98;;;12.80;99.90;;;;;;5032375;28;20216;-78
2022/04/07 07:55:49;;;;;;;28.45;25.35;;;12.80;99.90;;;;;;5026172;28;20196;-76
2022/04/07 07:58:16;;;;;;;29.65;26.50;;;12.80;99.90;;;;;;5029012;28;20192;-77
2022/04/07 08:00:45;;;;;;;34.40;30.83;;;12.90;99.90;;;;;;5026010;28;20211;-77
2022/04/07 08:03:12;;;;;;;34.30;30.70;;;12.90;99.90;;;;;;5026906;28;20258;-77
2022/04/07 08:05:39;;;;;;;32.40;28.92;;;12.80;99.90;;;;;;5029455;28;20202;-77
2022/04/07 08:08:07;;;;;;;32.05;28.65;;;12.70;99.90;;;;;;5028216;28;20219;-76
2022/04/07 08:10:34;;;;;;;30.98;27.75;;;12.60;99.90;;;;;;5026022;28;20227;-76
2022/04/07 08:13:01;;;;;;;37.20;33.00;;;12.60;99.90;;;;;;5022679;28;20524;-77
2022/04/07 08:15:29;;;;;;;34.30;30.67;;;12.90;99.90;;;;;;5025050;28;20200;-76
2022/04/07 08:17:57;;;;;;;36.47;32.45;;;13.40;99.90;;;;;;5022367;28;20748;-76
2022/04/07 08:20:24;;;;;;;34.83;31.05;;;13.50;99.90;;;;;;5019250;28;20228;-77
2022/04/07 08:22:51;;;;;;;35.63;31.52;;;13.70;99.90;;;;;;5025257;28;20223;-76
2022/04/07 08:25:18;;;;;;;34.60;30.88;;;13.70;99.90;;;;;;5026328;28;20219;-77
2022/04/07 08:27:46;;;;;;;32.28;29.08;;;13.70;99.90;;;;;;5023287;28;20307;-76
2022/04/07 08:30:14;;;;;;;36.17;32.35;;;13.70;99.90;;;;;;5025841;28;20195;-77
2022/04/07 08:32:41;;;;;;;31.83;28.38;;;13.70;99.90;;;;;;5028610;28;20220;-77
2022/04/07 08:35:10;;;;;;;38.10;34.08;;;13.70;99.90;;;;;;5028057;28;20669;-77
2022/04/07 08:37:37;;;;;;;36.88;32.15;;;13.70;99.90;;;;;;5032377;28;20246;-77
2022/04/07 08:40:07;;;;;;;37.28;33.28;;;13.90;99.90;;;;;;5031179;28;20253;-76
2022/04/07 08:42:35;;;;;;;36.50;32.55;;;14.30;99.90;;;;;;5061565;22;20293;-75
2022/04/07 08:45:03;;;;;;;37.90;33.97;;;14.70;99.90;;;;;;5037912;28;20233;-77
2022/04/07 08:47:33;;;;;;;37.22;33.35;;;15.00;99.90;;;;;;5045067;28;20681;-75
2022/04/07 08:50:03;;;;;;;35.45;31.30;;;15.30;99.90;;;;;;5040824;28;20493;-77
2022/04/07 08:52:32;;;;;;;37.05;31.75;;;15.70;99.90;;;;;;5040605;28;20276;-79
2022/04/07 08:54:59;;;;;;;36.75;31.80;;;15.90;99.90;;;;;;5047746;28;20206;-79
2022/04/07 08:57:29;;;;;;;34.83;31.15;;;16.00;99.90;;;;;;5041149;28;20211;-76
2022/04/07 08:59:57;;;;;;;39.17;35.10;;;16.20;99.90;;;;;;5044532;28;20245;-76
2022/04/07 09:02:24;;;;;;;37.42;33.30;;;16.50;99.90;;;;;;5038894;28;20231;-76
2022/04/07 09:04:58;;;;;;;38.20;33.65;;;16.50;99.90;;;;;;5040462;28;20203;-76
2022/04/07 09:07:33;;;;;;;36.80;33.13;;;16.60;99.90;;;;;;5042203;28;20218;-77
2022/04/07 09:10:01;;;;;;;39.10;35.05;;;16.70;99.90;;;;;;5037265;28;20207;-75
2022/04/07 09:12:28;;;;;;;36.50;32.15;;;16.80;99.90;;;;;;5039607;28;20245;-77
2022/04/07 09:14:59;;;;;;;35.45;31.65;;;16.80;99.90;;;;;;5033934;28;20206;-76
2022/04/07 09:17:27;;;;;;;39.63;35.45;;;16.80;99.90;;;;;;5036848;28;20215;-76
2022/04/07 09:19:54;;;;;;;34.75;31.13;;;16.90;99.90;;;;;;5038474;28;20206;-77
2022/04/07 09:22:30;;;;;;;38.58;34.45;;;16.70;99.90;;;;;;5042859;28;20222;-77
2022/04/07 09:25:04;;;;;;;37.28;33.28;;;16.80;99.90;;;;;;5039441;28;21110;-77
2022/04/07 09:27:31;;;;;;;37.78;33.88;;;16.80;99.90;;;;;;5041318;28;20593;-77
2022/04/07 09:29:59;;;;;;;36.28;32.53;;;17.20;99.90;;;;;;5037627;28;20588;-78
2022/04/07 09:32:27;;;;;;;34.92;31.05;;;17.60;99.90;;;;;;5034605;28;20240;-78
2022/04/07 09:34:56;;;;;;;38.58;34.38;;;17.60;99.90;;;;;;5037624;28;20199;-76
2022/04/07 09:37:25;;;;;;;32.92;29.33;;;17.90;99.90;;;;;;5040533;28;20229;-79
2022/04/07 09:40:05;;;;;;;32.17;28.92;;;18.00;99.90;;;;;;5038322;28;20196;-80
2022/04/07 09:42:33;;;;;;;36.83;33.08;;;18.20;99.90;;;;;;5037336;28;20234;-76
2022/04/07 09:45:01;;;;;;;33.33;29.92;;;18.40;99.90;;;;;;5037644;28;20596;-78
2022/04/07 09:47:35;;;;;;;38.28;34.22;;;18.40;99.90;;;;;;5035565;28;20221;-79
2022/04/07 09:50:03;;;;;;;36.03;32.25;;;18.30;99.90;;;;;;5037137;28;20198;-76
2022/04/07 09:52:30;;;;;;;34.95;31.33;;;18.20;99.90;;;;;;5043363;28;20223;-77
2022/04/07 09:55:04;;;;;;;34.42;30.75;;;18.10;99.90;;;;;;5035238;28;20210;-77
2022/04/07 09:57:33;;;;;;;33.40;29.92;;;18.00;99.90;;;;;;5036081;28;20214;-77
2022/04/07 10:00:03;;;;;;;36.75;32.80;;;17.90;99.90;;;;;;5039069;28;20211;-78
2022/04/07 10:02:30;;;;;;;38.72;34.67;;;18.00;99.90;;;;;;5032078;28;20334;-77
2022/04/07 10:04:58;;;;;;;34.88;31.20;;;17.80;99.90;;;;;;5040617;28;20199;-77
2022/04/07 10:07:26;;;;;;;34.58;30.98;;;17.80;99.90;;;;;;5035227;28;20210;-78
2022/04/07 10:09:53;;;;;;;36.63;32.78;;;18.00;99.90;;;;;;5035407;28;20198;-78
2022/04/07 10:12:22;;;;;;;33.47;29.90;;;18.10;99.90;;;;;;5037254;28;20276;-79
2022/04/07 10:14:50;;;;;;;37.92;34.17;;;18.30;99.90;;;;;;5040236;28;20203;-77
2022/04/07 10:17:18;;;;;;;38.38;34.40;;;18.30;99.90;;;;;;5038008;28;20747;-78
2022/04/07 10:19:50;;;;;;;36.30;32.70;;;18.10;99.90;;;;;;5038097;28;20195;-76
2022/04/07 10:22:46;;;;;;;35.78;32.08;;;18.00;99.90;;;;;;5036706;28;20300;-77
2022/04/07 10:25:14;;;;;;;33.50;30.02;;;18.10;99.90;;;;;;5038359;28;20211;-77
2022/04/07 10:27:44;;;;;;;34.72;31.10;;;18.20;99.90;;;;;;5034943;28;20273;-76
2022/04/07 10:30:14;;;;;;;35.15;31.48;;;18.40;99.90;;;;;;5038604;28;20205;-79
2022/04/07 10:32:43;;;;;;;30.17;27.17;;;18.40;99.90;;;;;;5038088;28;20223;-76
2022/04/07 10:35:11;;;;;;;30.60;27.52;;;18.60;99.90;;;;;;5038146;28;20206;-76
2022/04/07 10:37:42;;;;;;;33.25;29.85;;;19.00;99.90;;;;;;5041532;28;20626;-75
2022/04/07 10:40:35;;;;;;;31.50;28.23;;;19.20;99.90;;;;;;5037744;28;20293;-76
2022/04/07 10:43:26;;;;;;;36.25;31.25;;;19.20;99.90;;;;;;5030539;28;20716;-75
2022/04/07 10:46:10;;;;;;;39.20;35.17;;;19.00;99.90;;;;;;5029429;28;20204;-77
2022/04/07 10:48:38;;;;;;;32.67;29.35;;;18.80;99.90;;;;;;5041481;28;20218;-77
2022/04/07 10:51:07;;;;;;;33.75;30.25;;;18.70;99.90;;;;;;5040453;28;21026;-76
2022/04/07 10:53:36;;;;;;;34.45;30.65;;;19.00;99.90;;;;;;5037468;28;20264;-76
2022/04/07 10:56:08;;;;;;;34.10;30.55;;;18.90;99.90;;;;;;5044344;28;20201;-77
2022/04/07 10:58:47;;;;;;;33.35;30.02;;;18.80;99.90;;;;;;5045128;28;20748;-77
2022/04/07 11:01:17;;;;;;;35.58;31.90;;;19.00;99.90;;;;;;5041171;28;20580;-76
2022/04/07 11:04:30;;;;;;;30.77;27.52;;;19.10;99.90;;;;;;5043939;28;20625;-77
2022/04/07 11:07:17;;;;;;;29.17;26.27;;;19.00;99.90;;;;;;5045620;28;20225;-77
2022/04/07 11:09:50;;;;;;;29.45;26.52;;;18.90;99.90;;;;;;5042942;28;20210;-76
2022/04/07 11:12:19;;;;;;;31.58;28.30;;;19.20;99.90;;;;;;5040321;28;20274;-76
2022/04/07 11:14:47;;;;;;;35.13;31.48;;;19.20;99.90;;;;;;5044597;28;20649;-75
2022/04/07 11:17:29;;;;;;;28.85;26.00;;;19.10;99.90;;;;;;5041171;28;20787;-76
2022/04/07 11:20:13;;;;;;;28.83;26.00;;;19.20;99.90;;;;;;5041642;28;20202;-76
2022/04/07 11:22:49;;;;;;;28.20;25.40;;;19.40;99.90;;;;;;5041335;28;20219;-75
2022/04/07 11:25:20;;;;;;;26.10;23.48;;;19.50;99.90;;;;;;5044020;28;21745;-75
2022/04/07 11:28:07;;;;;;;31.67;28.33;;;19.70;99.90;;;;;;5041889;28;20219;-76
2022/04/07 11:30:43;;;;;;;27.05;24.38;;;19.70;99.90;;;;;;5042116;28;20186;-76
2022/04/07 11:33:39;;;;;;;26.83;24.13;;;19.70;99.90;;;;;;5042415;28;20590;-76
2022/04/07 11:36:33;;;;;;;28.27;25.25;;;20.00;99.90;;;;;;5043219;28;20657;-76
2022/04/07 11:39:00;;;;;;;26.88;24.02;;;19.90;99.90;;;;;;5037476;28;20211;-75
2022/04/07 11:41:33;;;;;;;24.73;22.27;;;19.90;99.90;;;;;;5042408;28;20621;-76
2022/04/07 11:44:09;;;;;;;23.60;21.23;;;19.90;99.90;;;;;;5037819;28;20297;-75
2022/04/07 11:46:37;;;;;;;23.17;20.85;;;20.10;99.90;;;;;;5043558;28;20278;-75
2022/04/07 11:49:07;;;;;;;20.45;18.42;;;20.50;99.90;;;;;;5039018;28;20239;-76
2022/04/07 11:51:37;;;;;;;20.80;18.77;;;20.90;99.90;;;;;;5044569;28;20195;-76
2022/04/07 11:54:05;;;;;;;22.38;20.13;;;21.30;99.90;;;;;;5040278;28;20666;-75
2022/04/07 11:56:33;;;;;;;19.70;17.75;;;21.40;99.90;;;;;;5041981;28;20195;-76
2022/04/07 11:59:03;;;;;;;26.15;23.48;;;21.60;99.90;;;;;;5038070;28;20566;-76
2022/04/07 12:01:31;;;;;;;18.27;16.48;;;21.60;99.90;;;;;;5045699;28;20196;-75
2022/04/07 12:04:00;;;;;;;14.30;12.82;;;21.30;99.90;;;;;;5036619;28;20215;-76
2022/04/07 12:06:30;;;;;;;14.95;13.55;;;21.30;99.90;;;;;;5043672;28;20290;-76
2022/04/07 12:08:57;;;;;;;13.50;12.30;;;21.20;99.90;;;;;;5038999;28;20226;-76
2022/04/07 12:11:25;;;;;;;14.40;12.38;;;21.20;99.90;;;;;;5043512;28;20599;-75
2022/04/07 12:13:54;;;;;;;14.90;13.50;;;21.10;99.90;;;;;;5039843;28;20241;-75
2022/04/07 12:16:22;;;;;;;14.13;12.73;;;21.10;99.90;;;;;;5043738;28;20767;-75
2022/04/07 12:18:57;;;;;;;15.75;14.15;;;21.10;99.90;;;;;;5040302;28;20211;-75
2022/04/07 12:21:25;;;;;;;15.10;13.60;;;21.20;99.90;;;;;;5039875;28;20616;-75
2022/04/07 12:24:12;;;;;;;17.63;15.73;;;20.90;99.90;;;;;;5040575;28;20223;-76
2022/04/07 12:26:40;;;;;;;15.35;13.95;;;20.60;99.90;;;;;;5045134;28;20230;-75
2022/04/07 12:29:08;;;;;;;15.75;14.10;;;20.60;99.90;;;;;;5038378;28;20224;-75
2022/04/07 12:31:35;;;;;;;14.55;13.05;;;20.70;99.90;;;;;;5038094;28;20226;-75
2022/04/07 12:34:08;;;;;;;13.80;12.32;;;20.80;99.90;;;;;;5042613;28;20276;-75
2022/04/07 12:36:39;;;;;;;15.50;14.00;;;20.60;99.90;;;;;;5041029;28;20637;-75